Time;durP1;ratioP1;P1;durP2;ratioP2;P2;SDS_P1;SDS_P2;PMS_P1;PMS_P2;Temp;Humidity;BMP_temperature;BMP_pressure;BME280_temperature;BME280_humidity;BME280_pressure;Samples;Min_cycle;Max_cycle;Signal;HPM_P1;HPM_P2
2022/05/18 00:00:44;;;;;;;1.98;1.10;;;;;;;24.96;45.02;99421.28;5111758;28;20385;-69
2022/05/18 00:03:11;;;;;;;2.05;1.05;;;;;;;24.95;45.05;99422.50;5111959;28;20044;-69
2022/05/18 00:05:39;;;;;;;2.10;1.27;;;;;;;24.93;45.39;99424.88;5094289;28;20074;-69
2022/05/18 00:08:06;;;;;;;1.50;1.00;;;;;;;24.93;45.29;99422.06;5091156;28;20044;-69
2022/05/18 00:10:34;;;;;;;1.77;1.10;;;;;;;24.93;45.22;99430.47;5091181;28;20048;-69
2022/05/18 00:12:59;;;;;;;1.60;1.17;;;;;;;24.92;45.27;99426.88;5090862;28;20040;-70
2022/05/18 00:15:26;;;;;;;1.70;1.20;;;;;;;24.92;45.17;99428.88;5090882;28;20044;-70
2022/05/18 00:17:52;;;;;;;3.08;1.27;;;;;;;24.92;45.16;99429.69;5091010;28;20492;-71
2022/05/18 00:20:18;;;;;;;2.13;1.10;;;;;;;24.89;45.05;99427.69;5091010;28;20091;-71
2022/05/18 00:22:53;;;;;;;2.25;1.30;;;;;;;24.89;45.18;99432.50;5091050;28;20341;-70
2022/05/18 00:25:22;;;;;;;2.05;1.17;;;;;;;24.90;45.04;99428.50;5091224;28;20066;-70
2022/05/18 00:27:48;;;;;;;1.75;1.02;;;;;;;24.90;44.78;99426.50;5090921;28;20054;-70
2022/05/18 00:30:16;;;;;;;1.90;1.20;;;;;;;24.90;44.85;99428.50;5091004;28;20123;-71
2022/05/18 00:32:42;;;;;;;2.85;1.58;;;;;;;24.88;44.89;99433.69;5090556;28;20074;-70
2022/05/18 00:35:08;;;;;;;1.92;1.10;;;;;;;24.88;45.00;99428.09;5090605;28;20036;-71
2022/05/18 00:37:34;;;;;;;1.60;1.02;;;;;;;24.89;44.94;99426.91;5090872;28;20040;-70
2022/05/18 00:39:59;;;;;;;1.77;1.10;;;;;;;24.89;44.60;99432.50;5090936;28;20051;-70
2022/05/18 00:42:26;;;;;;;2.13;1.13;;;;;;;24.86;44.89;99428.50;5090768;28;20040;-70
2022/05/18 00:44:52;;;;;;;1.88;1.05;;;;;;;24.87;44.97;99440.50;5090793;28;20043;-69
2022/05/18 00:47:20;;;;;;;2.25;1.30;;;;;;;24.85;45.16;99435.28;5090953;28;20052;-69
2022/05/18 00:49:49;;;;;;;2.70;1.25;;;;;;;24.84;45.05;99441.28;5090731;28;20132;-69
2022/05/18 00:52:18;;;;;;;1.92;1.20;;;;;;;24.86;45.17;99445.31;5090190;28;20036;-69
2022/05/18 00:54:44;;;;;;;1.67;1.10;;;;;;;24.85;45.19;99440.09;5090545;28;20075;-69
2022/05/18 00:57:17;;;;;;;1.85;1.00;;;;;;;24.83;44.73;99436.91;5090682;28;20123;-69
2022/05/18 00:59:47;;;;;;;1.40;0.93;;;;;;;24.84;44.91;99441.28;5090637;28;20518;-69
2022/05/18 01:02:13;;;;;;;2.22;1.35;;;;;;;24.84;45.15;99444.09;5090166;28;20044;-69
2022/05/18 01:04:42;;;;;;;1.90;1.20;;;;;;;24.80;45.10;99449.69;5089968;28;20390;-69
2022/05/18 01:07:13;;;;;;;2.00;1.13;;;;;;;24.78;44.98;99443.69;5081560;28;20064;-69
2022/05/18 01:09:42;;;;;;;1.95;1.10;;;;;;;24.81;45.09;99451.28;5070194;28;20463;-69
2022/05/18 01:12:11;;;;;;;2.03;1.20;;;;;;;24.80;45.25;99455.28;5069940;28;20052;-69
2022/05/18 01:14:44;;;;;;;2.20;1.30;;;;;;;24.81;45.21;99464.47;5069976;28;20128;-70
2022/05/18 01:17:12;;;;;;;1.60;1.00;;;;;;;24.82;45.25;99447.28;5069356;28;20054;-70
2022/05/18 01:19:45;;;;;;;2.03;1.30;;;;;;;24.79;45.24;99442.50;5070085;28;20045;-71
2022/05/18 01:22:35;;;;;;;1.90;1.30;;;;;;;24.79;45.15;99444.47;5070252;28;20048;-71
2022/05/18 01:25:26;;;;;;;1.55;1.15;;;;;;;24.77;45.20;99444.09;5070286;28;20045;-70
2022/05/18 01:27:52;;;;;;;2.00;1.10;;;;;;;24.77;45.17;99446.88;5069831;28;20040;-70
2022/05/18 01:30:18;;;;;;;1.65;0.95;;;;;;;24.76;45.28;99440.50;5069879;28;20060;-71
2022/05/18 01:32:51;;;;;;;2.72;1.25;;;;;;;24.76;45.16;99448.88;5069428;28;20045;-70
2022/05/18 01:35:20;;;;;;;1.80;1.20;;;;;;;24.77;45.11;99452.47;5069654;28;20040;-70
2022/05/18 01:37:46;;;;;;;2.00;1.08;;;;;;;24.75;44.98;99444.50;5069734;28;20412;-69
2022/05/18 01:40:19;;;;;;;1.80;1.15;;;;;;;24.74;45.18;99453.31;5069791;28;20565;-70
2022/05/18 01:42:49;;;;;;;1.90;1.15;;;;;;;24.73;45.13;99452.50;5069636;28;20076;-71
2022/05/18 01:45:15;;;;;;;1.73;1.23;;;;;;;24.74;45.28;99458.91;5069632;28;20527;-71
2022/05/18 01:47:42;;;;;;;2.05;1.10;;;;;;;24.74;45.35;99456.09;5069404;28;20051;-70
2022/05/18 01:50:12;;;;;;;2.20;1.40;;;;;;;24.73;45.23;99460.09;5069615;28;20071;-70
2022/05/18 01:52:39;;;;;;;1.90;1.23;;;;;;;24.71;45.25;99458.47;5069670;28;20048;-70
2022/05/18 01:55:06;;;;;;;1.98;1.20;;;;;;;24.72;45.13;99464.91;5069432;28;20044;-70
2022/05/18 01:57:33;;;;;;;1.73;1.17;;;;;;;24.72;45.33;99470.50;5069706;28;20041;-70
2022/05/18 01:59:58;;;;;;;1.83;1.20;;;;;;;24.71;45.24;99468.88;5069553;28;20047;-71
2022/05/18 02:02:24;;;;;;;1.65;1.17;;;;;;;24.70;45.34;99470.06;5069364;28;20131;-71
2022/05/18 02:04:50;;;;;;;1.48;1.08;;;;;;;24.69;45.09;99469.28;5069475;28;20047;-70
2022/05/18 02:07:15;;;;;;;1.67;1.17;;;;;;;24.67;45.19;99466.09;5069389;28;20048;-71
2022/05/18 02:09:41;;;;;;;1.92;1.08;;;;;;;24.69;45.22;99471.28;5069363;28;20454;-71
2022/05/18 02:12:09;;;;;;;2.45;1.33;;;;;;;24.67;45.36;99466.09;5069241;28;20045;-70
2022/05/18 02:14:34;;;;;;;1.65;1.10;;;;;;;24.69;45.48;99469.28;5068844;28;20505;-69
2022/05/18 02:16:59;;;;;;;1.63;1.15;;;;;;;24.68;45.12;99472.47;5069082;28;20045;-69
2022/05/18 02:19:25;;;;;;;2.17;1.20;;;;;;;24.67;45.37;99468.88;5069203;28;20044;-69
2022/05/18 02:21:51;;;;;;;1.60;1.02;;;;;;;24.69;45.30;99474.88;5069227;28;20086;-71
2022/05/18 02:24:17;;;;;;;2.00;1.30;;;;;;;24.66;45.47;99472.88;5068124;28;20044;-70
2022/05/18 02:26:43;;;;;;;1.70;1.17;;;;;;;24.66;45.61;99478.47;5069010;28;20043;-71
2022/05/18 02:29:09;;;;;;;1.58;1.10;;;;;;;24.65;45.56;99473.28;5071927;28;20044;-69
2022/05/18 02:31:35;;;;;;;2.15;1.30;;;;;;;24.64;45.42;99478.06;5072621;28;20044;-69
2022/05/18 02:34:01;;;;;;;1.70;1.10;;;;;;;24.66;45.65;99477.69;5072123;28;20416;-70
2022/05/18 02:36:26;;;;;;;1.70;1.05;;;;;;;24.64;45.53;99475.25;5072402;28;20508;-70
2022/05/18 02:38:52;;;;;;;1.80;1.20;;;;;;;24.66;45.62;99475.69;5072570;28;20044;-70
2022/05/18 02:41:19;;;;;;;1.73;1.20;;;;;;;24.63;45.42;99476.47;5072258;28;20113;-69
2022/05/18 02:43:44;;;;;;;1.52;1.15;;;;;;;24.62;45.42;99474.06;5072323;28;20036;-69
2022/05/18 02:46:11;;;;;;;2.63;1.60;;;;;;;24.63;45.42;99476.47;5072071;28;20044;-71
2022/05/18 02:48:37;;;;;;;1.85;1.20;;;;;;;24.62;45.52;99479.66;5072410;28;20131;-71
2022/05/18 02:51:04;;;;;;;1.75;1.27;;;;;;;24.61;45.62;99484.47;5072331;28;20140;-70
2022/05/18 02:53:30;;;;;;;2.30;1.30;;;;;;;24.60;45.48;99479.28;5072033;28;20083;-70
2022/05/18 02:56:07;;;;;;;1.73;1.30;;;;;;;24.58;45.32;99479.69;5071479;28;20072;-70
2022/05/18 02:58:38;;;;;;;1.95;1.17;;;;;;;24.60;45.45;99479.28;5072524;28;20044;-70
2022/05/18 03:01:09;;;;;;;1.60;1.10;;;;;;;24.60;45.71;99482.06;5072411;28;20047;-71
2022/05/18 03:03:36;;;;;;;2.13;1.40;;;;;;;24.59;45.49;99484.06;5070964;28;20491;-70
2022/05/18 03:06:05;;;;;;;2.47;1.42;;;;;;;24.58;45.74;99485.28;5071801;28;20045;-70
2022/05/18 03:08:32;;;;;;;1.80;1.10;;;;;;;24.58;45.67;99487.28;5071784;28;20404;-70
2022/05/18 03:10:57;;;;;;;1.60;1.10;;;;;;;24.58;45.57;99490.06;5071667;28;20496;-70
2022/05/18 03:13:23;;;;;;;1.90;1.20;;;;;;;24.58;45.44;99481.69;5071847;28;20082;-70
2022/05/18 03:15:49;;;;;;;1.70;1.17;;;;;;;24.57;45.29;99489.25;5071719;28;20041;-70
2022/05/18 03:18:15;;;;;;;1.90;1.25;;;;;;;24.56;45.45;99481.25;5072125;28;20087;-70
2022/05/18 03:23:34;;;;;;;2.05;1.30;;;;;;;24.55;45.46;99483.25;5072219;28;20126;-69
2022/05/18 03:26:13;;;;;;;1.90;1.20;;;;;;;24.53;45.46;99491.25;5071743;28;20064;-70
2022/05/18 03:28:41;;;;;;;1.42;1.00;;;;;;;24.55;45.51;99494.44;5071954;28;20156;-71
2022/05/18 03:31:07;;;;;;;1.45;1.10;;;;;;;24.54;45.63;99490.03;5071516;28;20132;-71
2022/05/18 03:33:34;;;;;;;1.60;1.20;;;;;;;24.54;45.50;99490.03;5071515;28;20049;-70
2022/05/18 03:36:00;;;;;;;1.92;1.13;;;;;;;24.55;45.74;99485.25;5071286;28;20072;-71
2022/05/18 03:38:26;;;;;;;1.90;1.05;;;;;;;24.55;45.34;99490.84;5071056;28;20052;-71
2022/05/18 03:40:52;;;;;;;3.13;1.20;;;;;;;24.54;45.55;99484.47;5071630;28;20404;-70
2022/05/18 03:43:19;;;;;;;1.85;1.10;;;;;;;24.53;45.62;99494.03;5071782;28;20051;-70
2022/05/18 03:45:44;;;;;;;1.83;1.20;;;;;;;24.52;45.70;99492.44;5071580;28;20136;-71
2022/05/18 03:48:11;;;;;;;1.50;1.10;;;;;;;24.51;45.49;99487.25;5071641;28;20115;-70
2022/05/18 03:50:39;;;;;;;1.65;1.15;;;;;;;24.50;45.74;99494.03;5071559;28;20135;-70
2022/05/18 03:53:06;;;;;;;1.63;1.10;;;;;;;24.49;45.50;99504.41;5071414;28;20123;-71
2022/05/18 03:55:31;;;;;;;1.70;1.08;;;;;;;24.49;45.76;99496.03;5071466;28;20045;-71
2022/05/18 03:57:57;;;;;;;2.20;1.40;;;;;;;24.50;45.80;99494.81;5071204;28;20047;-70
2022/05/18 04:00:23;;;;;;;1.88;1.35;;;;;;;24.51;45.61;99504.03;5071689;28;20052;-69
2022/05/18 04:02:48;;;;;;;2.13;1.30;;;;;;;24.49;45.55;99500.81;5071351;28;20040;-69
2022/05/18 04:05:20;;;;;;;1.80;1.10;;;;;;;24.49;45.58;99501.63;5071161;28;20414;-69
2022/05/18 04:07:47;;;;;;;1.73;1.10;;;;;;;24.48;45.40;99505.63;5071090;28;20041;-69
2022/05/18 04:10:14;;;;;;;1.80;1.20;;;;;;;24.47;45.44;99511.63;5071006;28;20040;-69
2022/05/18 04:12:40;;;;;;;2.00;1.20;;;;;;;24.48;45.51;99510.41;5071062;28;20053;-69
2022/05/18 04:15:06;;;;;;;1.75;1.10;;;;;;;24.45;45.67;99514.81;5070926;28;20435;-69
2022/05/18 04:17:32;;;;;;;2.38;1.33;;;;;;;24.47;45.53;99518.00;5070735;28;20087;-69
2022/05/18 04:19:58;;;;;;;1.38;1.00;;;;;;;24.45;45.41;99520.41;5069676;28;20041;-69
2022/05/18 04:22:23;;;;;;;1.65;1.20;;;;;;;24.45;45.69;99528.00;5070929;28;20036;-69
2022/05/18 04:24:50;;;;;;;2.15;1.25;;;;;;;24.45;45.69;99528.00;5070780;28;20041;-69
2022/05/18 04:27:16;;;;;;;1.40;1.00;;;;;;;24.45;45.52;99531.59;5071007;28;20045;-69
2022/05/18 04:29:41;;;;;;;1.80;1.30;;;;;;;24.44;45.63;99530.00;5071014;28;20044;-69
2022/05/18 04:32:07;;;;;;;2.30;1.38;;;;;;;24.45;45.57;99522.41;5070538;28;20115;-69
2022/05/18 04:34:34;;;;;;;1.55;1.05;;;;;;;24.44;45.91;99527.19;5070509;28;20584;-69
2022/05/18 04:36:59;;;;;;;1.80;1.20;;;;;;;24.43;45.62;99529.19;5070661;28;20131;-69
2022/05/18 04:39:25;;;;;;;2.53;1.50;;;;;;;24.45;45.71;99531.59;5070913;28;20127;-69
2022/05/18 04:41:50;;;;;;;2.00;1.30;;;;;;;24.43;45.76;99522.78;5070571;28;20055;-69
2022/05/18 04:44:16;;;;;;;1.88;1.13;;;;;;;24.46;45.86;99540.78;5070948;28;20135;-69
2022/05/18 04:46:42;;;;;;;1.92;1.20;;;;;;;24.44;45.90;99541.19;5070605;28;20044;-69
2022/05/18 04:49:10;;;;;;;2.00;1.30;;;;;;;24.43;45.76;99539.56;5070619;28;20118;-69
2022/05/18 04:51:35;;;;;;;1.73;1.23;;;;;;;24.45;46.24;99544.78;5069369;28;20052;-69
2022/05/18 04:54:00;;;;;;;1.70;1.17;;;;;;;24.43;46.19;99539.56;5068813;28;20419;-69
2022/05/18 04:56:26;;;;;;;1.20;0.90;;;;;;;24.44;46.21;99543.97;5070222;28;20044;-69
2022/05/18 04:58:51;;;;;;;1.42;0.98;;;;;;;24.47;46.09;99539.56;5070356;28;20045;-69
2022/05/18 05:01:17;;;;;;;1.60;1.10;;;;;;;24.46;46.22;99541.56;5070434;28;20040;-69
2022/05/18 05:03:43;;;;;;;2.17;1.30;;;;;;;24.48;46.11;99543.97;5068969;28;20400;-69
2022/05/18 05:06:08;;;;;;;1.75;1.20;;;;;;;24.48;46.17;99543.97;5070308;28;20109;-69
2022/05/18 05:08:35;;;;;;;2.03;1.35;;;;;;;24.49;46.26;99551.16;5070261;28;20040;-69
2022/05/18 05:11:00;;;;;;;2.15;1.40;;;;;;;24.48;46.26;99553.16;5069014;28;20040;-68
2022/05/18 05:13:26;;;;;;;1.80;1.23;;;;;;;24.50;46.36;99553.53;5070364;28;20523;-69
2022/05/18 05:16:09;;;;;;;2.25;1.33;;;;;;;24.50;46.38;99550.75;5070029;28;20040;-69
2022/05/18 05:18:35;;;;;;;1.75;1.02;;;;;;;24.50;46.54;99553.53;5069980;28;20048;-69
2022/05/18 05:21:01;;;;;;;1.90;1.30;;;;;;;24.48;46.60;99553.16;5070076;28;20049;-69
2022/05/18 05:23:27;;;;;;;2.00;1.30;;;;;;;24.49;46.63;99553.94;5070088;28;20072;-69
2022/05/18 05:25:54;;;;;;;1.73;1.15;;;;;;;24.48;46.62;99561.53;5070055;28;20040;-69
2022/05/18 05:28:20;;;;;;;1.80;1.27;;;;;;;24.46;46.71;99560.34;5070326;28;20242;-69
2022/05/18 05:30:46;;;;;;;2.08;1.50;;;;;;;24.45;46.61;99553.16;5069923;28;20044;-69
2022/05/18 05:33:11;;;;;;;2.88;1.40;;;;;;;24.48;46.77;99555.94;5069834;28;20043;-69
2022/05/18 05:35:41;;;;;;;2.05;1.27;;;;;;;24.53;46.72;99560.38;5069673;28;20045;-69
2022/05/18 05:38:11;;;;;;;1.90;1.30;;;;;;;24.52;46.85;99570.75;5069945;28;20071;-69
2022/05/18 05:40:37;;;;;;;1.73;1.20;;;;;;;24.51;47.08;99557.97;5069903;28;20048;-69
2022/05/18 05:43:07;;;;;;;4.35;1.40;;;;;;;24.51;47.04;99557.16;5069835;28;20178;-69
2022/05/18 05:45:33;;;;;;;3.08;1.52;;;;;;;24.51;46.91;99560.75;5069680;28;20059;-69
2022/05/18 05:47:58;;;;;;;2.03;1.30;;;;;;;24.52;46.99;99558.78;5069534;28;20056;-69
2022/05/18 05:50:25;;;;;;;2.08;1.42;;;;;;;24.50;47.34;99561.13;5069618;28;20053;-69
2022/05/18 05:52:51;;;;;;;2.17;1.50;;;;;;;24.53;47.05;99568.75;5069341;28;20133;-69
2022/05/18 05:55:17;;;;;;;2.78;1.73;;;;;;;24.53;47.00;99568.75;5069139;28;20521;-69
2022/05/18 05:57:42;;;;;;;2.65;1.60;;;;;;;24.54;47.02;99570.34;5069507;28;20416;-70
2022/05/18 06:00:08;;;;;;;3.72;1.40;;;;;;;24.54;47.12;99561.97;5069503;28;20488;-71
2022/05/18 06:02:34;;;;;;;2.17;1.38;;;;;;;24.57;47.21;99570.34;5069232;28;20044;-71
2022/05/18 06:04:59;;;;;;;2.20;1.58;;;;;;;24.64;46.84;99567.56;5069429;28;20052;-69
2022/05/18 06:07:25;;;;;;;1.88;1.30;;;;;;;24.68;47.21;99567.56;5069368;28;20048;-69
2022/05/18 06:09:50;;;;;;;3.00;1.65;;;;;;;24.68;46.96;99567.56;5069471;28;20372;-69
2022/05/18 06:12:16;;;;;;;2.10;1.45;;;;;;;24.65;46.91;99560.78;5069178;28;20118;-69
2022/05/18 06:14:45;;;;;;;2.38;1.60;;;;;;;24.70;47.14;99562.38;5066709;28;20043;-72
2022/05/18 06:17:10;;;;;;;4.78;1.40;;;;;;;24.83;46.97;99568.38;5054448;28;20032;-71
2022/05/18 06:19:36;;;;;;;7.43;1.60;;;;;;;24.92;47.52;99554.78;5080268;28;20423;-72
2022/05/18 06:22:02;;;;;;;6.40;1.60;;;;;;;24.90;47.56;99554.41;5073654;28;20045;-71
2022/05/18 06:24:27;;;;;;;7.45;1.98;;;;;;;24.97;47.65;99557.19;5067538;28;20044;-70
2022/05/18 06:26:56;;;;;;;8.57;2.55;;;;;;;24.94;47.93;99552.41;5068893;28;20044;-70
2022/05/18 06:29:21;;;;;;;7.32;1.70;;;;;;;25.09;47.12;99554.03;5065527;28;20044;-70
2022/05/18 06:31:47;;;;;;;4.13;2.00;;;;;;;25.19;47.03;99553.22;5061976;28;20057;-64
2022/05/18 06:34:12;;;;;;;5.32;2.22;;;;;;;25.06;47.10;99543.63;5066629;28;20402;-64
2022/05/18 06:36:37;;;;;;;8.00;2.25;;;;;;;25.12;46.67;99544.81;5067904;28;20483;-65
2022/05/18 06:39:03;;;;;;;11.45;2.55;;;;;;;25.09;46.54;99547.66;5068294;28;20041;-65
2022/05/18 06:41:29;;;;;;;9.48;3.97;;;;;;;25.08;46.29;99551.66;5061419;28;20032;-64
2022/05/18 06:43:58;;;;;;;12.00;5.07;;;;;;;24.98;46.34;99550.41;5050107;28;20461;-64
2022/05/18 06:46:25;;;;;;;7.60;4.63;;;;;;;25.01;46.33;99546.81;5051325;28;20049;-67
2022/05/18 06:48:51;;;;;;;7.97;4.05;;;;;;;25.00;46.78;99548.00;5054542;28;20974;-65
2022/05/18 06:51:20;;;;;;;8.63;3.50;;;;;;;24.96;46.70;99544.41;5053303;28;20036;-64
2022/05/18 06:53:47;;;;;;;6.93;3.00;;;;;;;24.94;46.57;99542.03;5053396;28;20037;-65
2022/05/18 06:56:12;;;;;;;7.07;3.10;;;;;;;24.98;46.55;99537.22;5055815;28;20025;-66
2022/05/18 06:58:37;;;;;;;9.23;2.92;;;;;;;25.01;46.48;99529.22;5066096;28;20078;-66
2022/05/18 07:01:06;;;;;;;7.53;2.60;;;;;;;24.99;46.78;99535.19;5056309;28;20071;-67
2022/05/18 07:03:31;;;;;;;8.50;2.83;;;;;;;24.98;46.86;99537.22;5060970;28;20092;-70
2022/05/18 07:05:57;;;;;;;9.45;3.20;;;;;;;24.90;46.90;99535.63;5061733;28;20488;-71
2022/05/18 07:08:22;;;;;;;8.85;2.78;;;;;;;24.91;47.17;99542.81;5060901;28;20041;-71
2022/05/18 07:10:48;;;;;;;12.00;3.20;;;;;;;24.94;46.86;99538.44;5056692;28;20559;-71
2022/05/18 07:13:17;;;;;;;10.23;3.08;;;;;;;24.95;46.42;99532.41;5061881;28;20069;-74
2022/05/18 07:15:45;;;;;;;9.60;3.03;;;;;;;24.93;46.74;99534.00;5072096;28;20056;-73
2022/05/18 07:18:12;;;;;;;9.88;2.85;;;;;;;24.93;46.40;99539.59;5060891;28;20050;-73
2022/05/18 07:20:37;;;;;;;5.22;2.53;;;;;;;24.94;45.82;99530.03;5058428;28;20067;-71
2022/05/18 07:23:03;;;;;;;8.02;2.67;;;;;;;24.96;45.94;99536.03;5059302;28;20048;-72
2022/05/18 07:25:28;;;;;;;8.07;2.60;;;;;;;24.96;45.74;99538.81;5063473;28;20045;-72
2022/05/18 07:27:54;;;;;;;6.45;2.95;;;;;;;25.01;45.16;99534.81;5053205;28;20094;-73
2022/05/18 07:30:19;;;;;;;7.95;2.75;;;;;;;24.98;45.00;99536.41;5064677;28;20037;-70
2022/05/18 07:32:44;;;;;;;7.88;2.83;;;;;;;24.98;44.94;99531.59;5060257;28;20465;-69
2022/05/18 07:35:10;;;;;;;8.40;2.58;;;;;;;25.05;44.46;99541.22;5057228;28;20033;-68
2022/05/18 07:37:36;;;;;;;10.00;3.05;;;;;;;24.98;44.75;99542.00;5071132;28;20432;-73
2022/05/18 07:40:03;;;;;;;6.18;2.50;;;;;;;25.01;44.51;99535.63;5067943;28;20097;-74
2022/05/18 07:42:28;;;;;;;9.65;2.75;;;;;;;25.00;44.87;99534.00;5063191;28;20048;-73
2022/05/18 07:44:53;;;;;;;10.70;2.78;;;;;;;25.02;44.99;99537.22;5065547;28;20040;-71
2022/05/18 07:47:27;;;;;;;9.80;2.70;;;;;;;25.06;44.71;99535.22;5065292;28;20044;-71
2022/05/18 07:49:53;;;;;;;6.57;2.40;;;;;;;25.11;44.76;99539.63;5070757;28;20049;-73
2022/05/18 07:52:18;;;;;;;6.28;2.50;;;;;;;25.09;44.98;99531.66;5070971;28;20047;-73
2022/05/18 07:54:47;;;;;;;7.35;2.83;;;;;;;25.10;44.81;99532.44;5066165;28;20040;-74
2022/05/18 07:57:12;;;;;;;13.45;5.97;;;;;;;25.10;44.80;99533.25;5073871;28;20401;-77
2022/05/18 07:59:37;;;;;;;14.27;5.40;;;;;;;25.09;45.06;99526.06;5064912;28;20045;-74
2022/05/18 08:02:03;;;;;;;9.98;5.20;;;;;;;25.08;45.30;99530.06;5061979;28;20044;-76
2022/05/18 08:04:28;;;;;;;10.50;4.32;;;;;;;25.09;45.37;99528.84;5062414;28;20048;-75
2022/05/18 08:06:54;;;;;;;11.70;4.05;;;;;;;25.15;45.40;99524.44;5056076;28;20106;-76
2022/05/18 08:09:22;;;;;;;6.55;3.88;;;;;;;25.18;45.39;99526.44;5058312;28;20044;-75
2022/05/18 08:17:24;;;;;;;4.05;2.47;;;;;;;25.31;45.76;99520.41;5058071;28;20048;-73
2022/05/18 08:19:49;;;;;;;4.30;2.50;;;;;;;25.26;45.74;99524.41;5060640;28;20053;-74
2022/05/18 08:22:17;;;;;;;4.72;2.38;;;;;;;25.30;45.63;99513.22;5060100;28;20041;-73
2022/05/18 08:24:42;;;;;;;4.20;2.40;;;;;;;25.31;45.72;99512.03;5062105;28;20047;-74
2022/05/18 08:27:14;;;;;;;5.32;2.38;;;;;;;25.28;45.59;99504.41;5061076;28;20040;-74
2022/05/18 08:29:39;;;;;;;6.03;2.10;;;;;;;25.34;45.60;99500.00;5063271;28;20512;-74
2022/05/18 08:32:05;;;;;;;3.28;1.80;;;;;;;25.33;45.77;99501.22;5056683;28;20052;-74
2022/05/18 08:34:31;;;;;;;3.92;2.03;;;;;;;25.32;45.68;99497.63;5063737;28;20074;-74
2022/05/18 08:36:56;;;;;;;3.97;2.03;;;;;;;25.29;45.75;99497.59;5060166;28;20037;-74
2022/05/18 08:39:22;;;;;;;3.85;2.08;;;;;;;25.31;45.48;99498.03;5057175;28;20396;-74
2022/05/18 08:41:49;;;;;;;3.45;1.90;;;;;;;25.29;45.95;99497.59;5064174;28;20080;-74
2022/05/18 08:44:25;;;;;;;4.32;1.80;;;;;;;25.29;46.00;99500.41;5064914;28;20041;-74
2022/05/18 08:47:16;;;;;;;3.63;1.70;;;;;;;25.34;45.50;99491.59;5067282;28;20078;-74
2022/05/18 08:49:44;;;;;;;3.75;1.90;;;;;;;25.33;45.66;99502.00;5065861;28;20047;-72
2022/05/18 08:52:26;;;;;;;2.92;1.60;;;;;;;25.31;45.63;99496.03;5055812;28;20491;-72
2022/05/18 08:55:00;;;;;;;2.97;1.70;;;;;;;25.38;45.88;99492.41;5057554;28;20507;-72
2022/05/18 08:57:29;;;;;;;2.78;1.60;;;;;;;25.34;45.52;99492.41;5059553;28;20048;-72
2022/05/18 09:00:05;;;;;;;3.25;1.63;;;;;;;25.39;45.79;99496.81;5061114;28;20406;-73
2022/05/18 09:02:33;;;;;;;3.33;1.85;;;;;;;25.40;45.81;99490.78;5063285;28;20140;-73
2022/05/18 09:05:06;;;;;;;2.13;1.40;;;;;;;25.37;45.72;99490.81;5068726;28;20072;-70
2022/05/18 09:07:47;;;;;;;2.28;1.50;;;;;;;25.34;45.90;99486.78;5065786;28;20057;-71
2022/05/18 09:10:41;;;;;;;3.00;1.73;;;;;;;25.35;46.31;99501.59;5067800;28;20049;-72
2022/05/18 09:13:06;;;;;;;2.58;1.30;;;;;;;25.37;45.98;99496.41;5057633;28;20044;-73
2022/05/18 09:15:48;;;;;;;3.17;1.40;;;;;;;25.38;45.96;99498.00;5059936;28;20036;-68
2022/05/18 09:18:35;;;;;;;2.75;1.65;;;;;;;25.46;45.96;99493.97;5055545;28;20132;-70
2022/05/18 09:21:32;;;;;;;3.72;1.63;;;;;;;25.50;45.67;99486.34;5066887;28;20056;-69
2022/05/18 09:24:12;;;;;;;2.42;1.60;;;;;;;25.51;45.86;99496.38;5055416;28;20286;-70
2022/05/18 09:26:56;;;;;;;3.03;1.58;;;;;;;25.47;45.82;99489.97;5059415;28;20102;-71
2022/05/18 09:29:41;;;;;;;2.85;1.60;;;;;;;25.48;45.71;99486.75;5062740;28;20131;-69
2022/05/18 09:32:32;;;;;;;2.22;1.58;;;;;;;25.48;46.02;99481.16;5054850;28;20127;-73
2022/05/18 09:35:00;;;;;;;4.28;1.90;;;;;;;25.55;45.94;99483.13;5055362;28;20140;-71
2022/05/18 09:37:36;;;;;;;2.53;1.50;;;;;;;25.58;45.99;99473.94;5063455;28;20063;-75
2022/05/18 09:40:21;;;;;;;3.08;1.58;;;;;;;25.63;46.07;99476.31;5064235;28;20139;-66
2022/05/18 09:43:14;;;;;;;5.03;1.70;;;;;;;25.65;46.12;99473.13;5058416;28;20056;-70
2022/05/18 09:45:44;;;;;;;2.55;1.60;;;;;;;25.77;45.52;99479.06;5055977;28;20055;-64
2022/05/18 09:48:16;;;;;;;5.10;1.60;;;;;;;25.83;45.65;99473.06;5054824;28;20417;-64
2022/05/18 09:50:46;;;;;;;3.17;1.60;;;;;;;25.87;45.14;99471.84;5056993;28;20048;-64
2022/05/18 09:53:12;;;;;;;2.50;1.45;;;;;;;25.90;45.24;99467.41;5061152;28;20041;-68
2022/05/18 09:55:38;;;;;;;3.53;1.50;;;;;;;25.90;45.27;99467.41;5063667;28;20408;-69
2022/05/18 09:58:10;;;;;;;2.88;1.58;;;;;;;25.91;45.00;99458.59;5056719;28;20032;-69
2022/05/18 10:00:37;;;;;;;4.53;1.30;;;;;;;25.90;45.10;99456.19;5060577;28;20557;-69
2022/05/18 10:08:57;;;;;;;2.97;1.70;;;;;;;25.89;45.05;99451.81;5068714;28;20221;-69
2022/05/18 10:11:34;;;;;;;3.58;1.80;;;;;;;25.91;44.64;99450.19;5059545;28;20517;-69
2022/05/18 10:14:09;;;;;;;2.50;1.65;;;;;;;25.92;44.84;99448.19;5052718;28;20519;-67
2022/05/18 10:17:04;;;;;;;2.80;1.70;;;;;;;25.97;44.50;99444.94;5064980;28;20033;-65
2022/05/18 10:19:34;;;;;;;3.17;1.45;;;;;;;26.00;44.53;99441.31;5054441;28;20044;-67
2022/05/18 10:22:07;;;;;;;3.80;1.35;;;;;;;26.00;44.48;99438.50;5061146;28;20037;-67
2022/05/18 10:24:35;;;;;;;2.70;1.48;;;;;;;26.01;44.34;99446.53;5064318;28;20044;-66
2022/05/18 10:27:16;;;;;;;2.05;1.30;;;;;;;26.04;44.70;99433.69;5063023;28;20511;-67
2022/05/18 10:30:11;;;;;;;2.80;1.65;;;;;;;26.02;44.61;99438.91;5063614;28;20109;-67
2022/05/18 10:32:52;;;;;;;2.60;1.42;;;;;;;26.03;44.53;99426.50;5053026;28;20048;-67
2022/05/18 10:35:31;;;;;;;3.28;1.70;;;;;;;26.01;44.47;99417.72;5059497;28;20411;-67
2022/05/18 10:38:00;;;;;;;2.70;1.40;;;;;;;26.05;44.65;99424.06;5058399;28;20040;-67
2022/05/18 10:40:26;;;;;;;2.20;1.40;;;;;;;26.06;44.39;99420.84;5069159;28;20047;-67
2022/05/18 10:42:55;;;;;;;2.20;1.35;;;;;;;26.06;44.68;99420.06;5069432;28;20428;-67
2022/05/18 10:45:26;;;;;;;2.95;1.52;;;;;;;26.08;44.66;99414.88;5068646;28;20036;-66
2022/05/18 10:47:54;;;;;;;2.88;1.30;;;;;;;26.09;44.63;99424.84;5062547;28;20055;-67
2022/05/18 10:50:24;;;;;;;1.98;1.25;;;;;;;26.12;44.76;99412.81;5071347;28;20041;-66
2022/05/18 10:52:58;;;;;;;2.90;1.50;;;;;;;26.11;44.66;99408.41;5072084;28;20045;-67
2022/05/18 10:55:25;;;;;;;3.35;1.30;;;;;;;26.14;44.52;99410.38;5062081;28;20053;-67
2022/05/18 10:58:01;;;;;;;3.38;1.42;;;;;;;26.12;44.30;99400.81;5055303;28;20146;-67
2022/05/18 11:00:35;;;;;;;1.90;1.27;;;;;;;26.13;44.53;99385.56;5062483;28;20489;-66
2022/05/18 11:03:26;;;;;;;2.40;1.25;;;;;;;26.10;44.72;99398.41;5066364;28;20564;-67
2022/05/18 11:05:57;;;;;;;3.53;1.10;;;;;;;26.16;44.60;99391.16;5063644;28;20102;-67
2022/05/18 11:08:28;;;;;;;2.20;1.40;;;;;;;26.18;44.12;99387.94;5067084;28;20064;-67
2022/05/18 11:11:06;;;;;;;2.17;1.42;;;;;;;26.12;44.44;99386.78;5070329;28;20049;-67
2022/05/18 11:14:01;;;;;;;2.15;1.33;;;;;;;26.08;44.16;99384.03;5052592;28;20049;-67
2022/05/18 11:16:56;;;;;;;1.90;1.27;;;;;;;26.08;44.26;99378.41;5063233;28;20572;-67
2022/05/18 11:19:27;;;;;;;3.03;1.30;;;;;;;26.09;44.22;99374.41;5055726;28;20527;-67
2022/05/18 11:21:59;;;;;;;1.88;1.25;;;;;;;26.11;44.27;99374.78;5055936;28;20053;-67
2022/05/18 11:24:45;;;;;;;1.95;1.10;;;;;;;26.12;44.42;99372.78;5062843;28;20492;-66
2022/05/18 11:27:32;;;;;;;1.73;1.13;;;;;;;26.18;44.38;99366.31;5051121;28;20086;-67
2022/05/18 11:30:04;;;;;;;2.05;1.27;;;;;;;26.18;44.13;99365.53;5060126;28;20055;-67
2022/05/18 11:32:54;;;;;;;2.13;1.17;;;;;;;26.19;44.38;99364.31;5070049;28;20440;-66
2022/05/18 11:35:32;;;;;;;2.17;1.30;;;;;;;26.18;43.94;99360.72;5064088;28;20125;-66
2022/05/18 11:38:22;;;;;;;2.17;1.35;;;;;;;26.20;44.10;99352.66;5055804;28;20565;-67
2022/05/18 11:40:50;;;;;;;2.85;1.42;;;;;;;26.18;43.67;99352.28;5050146;28;20044;-77
2022/05/18 11:43:44;;;;;;;4.43;1.52;;;;;;;26.24;43.54;99356.25;5031692;28;20080;-70
2022/05/18 11:46:31;;;;;;;2.90;1.48;;;;;;;26.23;43.73;99343.44;4974726;28;20169;-70
2022/05/18 11:49:20;;;;;;;1.67;1.17;;;;;;;26.23;43.65;99351.06;4975893;28;20081;-70
2022/05/18 11:51:57;;;;;;;2.15;1.42;;;;;;;26.16;43.78;99345.53;4978505;28;20046;-76
2022/05/18 11:54:59;;;;;;;3.08;1.10;;;;;;;26.21;44.08;99343.03;4981219;28;20046;-76
2022/05/18 11:57:52;;;;;;;2.42;1.25;;;;;;;26.19;44.19;99345.47;4974119;28;20054;-74
2022/05/18 12:00:46;;;;;;;;;;;;;;;26.21;44.26;99336.63;4985971;28;20054;-74